Terminal Aerodrome Forecast
Issued by NWS

Home | Current Version | Previous Version | Text Only | Print | Product List | Glossary On
Versions: 1 2 3 4 5 6 7 8 9 10 11 12 13 14 15 16 17 18 19 20 21 22 23 24 25 26 27 28 29 30 31 32 33 34
000
FTAK31 PANC 031135
TAFATK
TAF
PATK 031135Z 0312/0412 02005KT P6SM VCSH OVC050
     FM031900 02005KT 3SM -SN OVC020
     FM032100 02005KT 2SM -SN BKN010 OVC020
     FM040400 03005KT P6SM VCSH SCT010 BKN025=

USA.gov is the U.S. government's official web portal to all federal, state and local government web resources and services.